createdAt,value
2019-02-18T00:02:38.110Z,96.89
2019-02-18T00:05:06.725Z,97.42
2019-02-18T00:07:35.158Z,97.10
2019-02-18T00:15:52.415Z,97.15
2019-02-18T00:18:21.181Z,97.46
2019-02-18T00:20:49.614Z,97.57
2019-02-18T00:23:18.060Z,97.73
2019-02-18T00:28:20.734Z,97.48
2019-02-18T00:33:23.140Z,97.11
2019-02-18T00:35:51.575Z,97.17
2019-02-18T00:38:20.032Z,96.66
2019-02-18T00:40:48.776Z,95.56
2019-02-18T00:43:17.213Z,96.01
2019-02-18T00:45:45.952Z,96.46
2019-02-18T00:48:14.382Z,96.37
2019-02-18T00:50:43.113Z,96.56
2019-02-18T00:53:11.643Z,96.56
2019-02-18T00:58:27.820Z,95.23
2019-02-18T01:00:57.092Z,95.14
2019-02-18T01:03:25.529Z,96.01
2019-02-18T01:08:28.289Z,96.61
2019-02-18T01:13:31.151Z,96.60
2019-02-18T01:15:59.622Z,96.60
2019-02-18T01:18:28.055Z,96.87
2019-02-18T01:20:56.490Z,97.23
2019-02-18T01:23:25.321Z,97.11
2019-02-18T01:25:53.749Z,96.22
2019-02-18T01:28:22.282Z,96.12
2019-02-18T01:31:10.178Z,95.57
2019-02-18T01:33:38.704Z,95.82
2019-02-18T01:36:07.138Z,95.29
2019-02-18T01:41:28.461Z,96.48
2019-02-18T01:43:57.010Z,97.29
2019-02-18T01:46:25.796Z,96.30
2019-02-18T01:48:54.324Z,96.67
2019-02-18T01:51:23.577Z,96.23
2019-02-18T01:53:52.002Z,95.97
2019-02-18T01:56:20.462Z,95.79
2019-02-18T01:58:48.921Z,96.63
2019-02-18T02:01:17.354Z,95.78
2019-02-18T02:03:45.795Z,96.09
2019-02-18T02:06:14.257Z,97.05
2019-02-18T02:08:42.696Z,96.64
2019-02-18T02:11:11.125Z,96.45
2019-02-18T02:13:39.593Z,96.29
2019-02-18T02:16:47.935Z,96.15
2019-02-18T02:19:16.399Z,96.54
2019-02-18T02:21:44.833Z,95.36
2019-02-18T02:24:13.267Z,95.82
2019-02-18T02:26:41.730Z,96.29
2019-02-18T02:29:10.177Z,96.36
2019-02-18T02:31:38.610Z,95.89
2019-02-18T02:34:07.168Z,97.11
2019-02-18T02:36:35.598Z,97.37
2019-02-18T02:39:23.424Z,96.34
2019-02-18T02:42:11.013Z,96.35
2019-02-18T02:44:39.480Z,96.12
2019-02-18T02:47:07.905Z,95.90
2019-02-18T02:49:36.359Z,96.51
2019-02-18T02:52:24.223Z,96.50
2019-02-18T02:55:11.820Z,95.65
2019-02-18T02:57:40.287Z,96.03
2019-02-18T03:00:48.641Z,95.83
2019-02-18T03:03:17.101Z,95.42
2019-02-18T03:05:45.890Z,95.75
2019-02-18T03:08:20.293Z,95.02
2019-02-18T03:10:44.502Z,95.84
2019-02-18T03:13:12.942Z,96.30
2019-02-18T03:15:41.380Z,95.95
2019-02-18T03:20:44.241Z,96.89
2019-02-18T03:23:12.706Z,96.79
2019-02-18T03:26:00.327Z,95.86
2019-02-18T03:29:07.371Z,95.56
2019-02-18T03:31:35.809Z,96.13
2019-02-18T03:34:44.224Z,96.23
2019-02-18T03:37:12.662Z,95.62
2019-02-18T03:40:00.632Z,96.39
2019-02-18T03:42:29.141Z,96.29
2019-02-18T03:44:57.935Z,96.32
2019-02-18T03:47:26.441Z,95.41
2019-02-18T03:49:54.905Z,95.71
2019-02-18T03:52:23.340Z,95.90
2019-02-18T03:54:52.191Z,95.46
2019-02-18T03:57:20.725Z,95.24
2019-02-18T03:59:49.225Z,95.64
2019-02-18T04:02:17.688Z,95.26
2019-02-18T04:04:46.192Z,95.55
2019-02-18T04:07:14.627Z,95.84
2019-02-18T04:09:43.091Z,95.58
2019-02-18T04:12:11.527Z,97.25
2019-02-18T04:14:39.954Z,96.31
2019-02-18T04:17:08.415Z,96.03
2019-02-18T04:19:36.854Z,94.87
2019-02-18T04:22:05.286Z,95.07
2019-02-18T04:24:33.852Z,95.60
2019-02-18T04:27:02.382Z,95.47
2019-02-18T04:29:30.813Z,95.91
2019-02-18T04:34:33.746Z,95.98
2019-02-18T04:37:02.489Z,95.27
2019-02-18T04:39:50.354Z,94.58
2019-02-18T04:42:18.786Z,94.13
2019-02-18T04:44:47.225Z,94.52
2019-02-18T04:47:15.795Z,94.52
2019-02-18T04:49:44.557Z,94.75
2019-02-18T04:52:12.995Z,94.67
2019-02-18T04:54:41.453Z,94.79
2019-02-18T04:57:09.891Z,95.44
2019-02-18T04:59:57.534Z,95.86
2019-02-18T05:02:25.968Z,96.08
2019-02-18T05:04:54.406Z,96.03
2019-02-18T05:07:22.862Z,95.20
2019-02-18T05:09:51.388Z,94.50
2019-02-18T05:12:19.825Z,94.18
2019-02-18T05:14:48.368Z,94.50
2019-02-18T05:17:16.802Z,94.54
2019-02-18T05:19:45.235Z,94.76
2019-02-18T05:22:13.786Z,96.60
2019-02-18T05:24:42.227Z,97.47
2019-02-18T05:27:10.666Z,96.81
2019-02-18T05:29:39.138Z,97.09
2019-02-18T05:32:07.576Z,96.12
2019-02-18T05:34:36.009Z,96.29
2019-02-18T05:37:04.470Z,95.17
2019-02-18T05:39:33.255Z,94.93
2019-02-18T05:42:01.699Z,95.29
2019-02-18T05:44:30.151Z,95.46
2019-02-18T05:46:58.584Z,95.06
2019-02-18T05:49:27.364Z,95.66
2019-02-18T05:51:55.933Z,94.33
2019-02-18T05:54:24.467Z,95.29
2019-02-18T05:56:52.901Z,94.73
2019-02-18T05:59:21.362Z,94.53
2019-02-18T06:04:57.884Z,94.70
2019-02-18T06:07:26.310Z,95.23
2019-02-18T06:09:54.828Z,94.88
2019-02-18T06:15:18.253Z,94.64
2019-02-18T06:17:46.685Z,94.18
2019-02-18T06:20:34.467Z,94.47
2019-02-18T06:23:02.892Z,94.18
2019-02-18T06:25:50.552Z,94.34
2019-02-18T06:28:18.990Z,94.13
2019-02-18T06:30:47.425Z,94.86
2019-02-18T06:33:15.888Z,95.38
2019-02-18T06:35:44.676Z,95.01
2019-02-18T06:38:32.384Z,94.59
2019-02-18T06:41:01.216Z,95.77
2019-02-18T06:43:29.629Z,95.00
2019-02-18T06:46:17.241Z,94.76
2019-02-18T06:51:34.777Z,93.90
2019-02-18T06:54:03.230Z,93.86
2019-02-18T07:07:33.881Z,94.73
2019-02-18T07:13:10.877Z,95.73
2019-02-18T07:15:39.312Z,95.75
2019-02-18T07:18:07.753Z,96.15
2019-02-18T07:20:36.222Z,96.01
2019-02-18T07:23:23.974Z,95.38
2019-02-18T07:28:26.372Z,95.62
2019-02-18T07:30:54.911Z,95.12
2019-02-18T07:33:23.387Z,94.57
2019-02-18T07:36:11.235Z,94.28
2019-02-18T07:38:39.698Z,94.58
2019-02-18T07:41:08.473Z,95.59
2019-02-18T07:43:36.901Z,95.92
2019-02-18T07:46:24.637Z,97.26
2019-02-18T07:48:53.372Z,97.63
2019-02-18T07:51:21.806Z,97.98
2019-02-18T07:53:50.265Z,97.84
2019-02-18T07:56:18.698Z,98.57
2019-02-18T07:58:47.135Z,98.06
2019-02-18T08:01:15.594Z,97.45
2019-02-18T08:06:31.662Z,97.66
2019-02-18T08:09:00.098Z,97.80
2019-02-18T08:11:28.618Z,98.25
2019-02-18T08:13:57.438Z,99.07
2019-02-18T08:16:25.874Z,98.54
2019-02-18T08:19:15.661Z,97.33
2019-02-18T08:21:44.201Z,97.18
2019-02-18T08:24:13.557Z,96.40
2019-02-18T08:26:44.080Z,96.21
2019-02-18T08:29:12.261Z,96.59
2019-02-18T08:31:41.461Z,95.83
2019-02-18T08:34:09.920Z,95.46
2019-02-18T08:36:38.344Z,95.33
2019-02-18T08:39:46.745Z,95.11
2019-02-18T08:42:15.157Z,94.90
2019-02-18T08:44:43.593Z,95.06
2019-02-18T08:49:46.109Z,94.02
2019-02-18T08:52:14.901Z,95.04
2019-02-18T08:54:43.688Z,94.50
2019-02-18T08:57:12.121Z,94.88
2019-02-18T08:59:40.576Z,94.60
2019-02-18T09:02:28.226Z,93.50
2019-02-18T09:04:57.012Z,94.25
2019-02-18T09:07:25.442Z,94.25
2019-02-18T09:09:54.136Z,93.18
2019-02-18T09:12:22.691Z,93.96
2019-02-18T09:14:51.124Z,93.67
2019-02-18T09:17:19.718Z,93.29
2019-02-18T09:19:48.492Z,92.45
2019-02-18T09:22:36.039Z,91.61
2019-02-18T09:25:44.510Z,91.83
2019-02-18T09:28:13.039Z,91.54
2019-02-18T09:33:30.854Z,90.50
2019-02-18T09:35:59.371Z,91.29
2019-02-18T09:38:28.120Z,91.05
2019-02-18T09:41:15.771Z,89.35
2019-02-18T09:43:44.205Z,89.58
2019-02-18T09:46:12.642Z,89.10
2019-02-18T09:48:41.113Z,89.35
2019-02-18T09:51:09.636Z,88.34
2019-02-18T09:53:38.065Z,88.45
2019-02-18T09:56:06.607Z,88.57
2019-02-18T09:58:35.022Z,89.86
2019-02-18T10:01:22.728Z,89.84
2019-02-18T10:03:51.156Z,89.64
2019-02-18T10:06:19.585Z,90.07
2019-02-18T10:08:48.143Z,89.50
2019-02-18T10:11:16.589Z,88.36
2019-02-18T10:13:45.004Z,88.32
2019-02-18T10:16:32.974Z,88.05
2019-02-18T10:19:01.428Z,88.07
2019-02-18T10:21:29.927Z,87.53
2019-02-18T10:23:58.357Z,87.11
2019-02-18T10:26:26.871Z,86.82
2019-02-18T10:28:55.631Z,87.08
2019-02-18T10:33:58.121Z,87.01
2019-02-18T10:36:26.885Z,86.17
2019-02-18T10:38:55.322Z,85.50
2019-02-18T10:41:43.101Z,84.69
2019-02-18T10:44:11.534Z,83.70
2019-02-18T10:46:40.750Z,83.26
2019-02-18T10:49:19.290Z,83.12
2019-02-18T10:51:41.141Z,82.27
2019-02-18T10:54:11.401Z,82.10
2019-02-18T10:56:39.873Z,82.16
2019-02-18T10:59:08.293Z,82.28
2019-02-18T11:01:36.793Z,82.31
2019-02-18T11:04:05.244Z,81.89
2019-02-18T11:06:33.674Z,82.03
2019-02-18T11:11:58.906Z,81.48
2019-02-18T11:14:27.339Z,80.64
2019-02-18T11:16:56.037Z,80.25
2019-02-18T11:19:24.827Z,79.22
2019-02-18T11:21:53.373Z,79.31
2019-02-18T11:24:21.812Z,78.93
2019-02-18T11:26:52.078Z,78.45
2019-02-18T11:29:20.513Z,77.63
2019-02-18T11:31:48.947Z,77.17
2019-02-18T11:34:17.413Z,76.63
2019-02-18T11:36:46.141Z,75.82
2019-02-18T11:39:14.641Z,75.67
2019-02-18T11:41:44.833Z,75.19
2019-02-18T11:44:13.265Z,74.85
2019-02-18T11:46:41.719Z,74.19
2019-02-18T11:49:11.091Z,74.33
2019-02-18T11:51:39.617Z,73.45
2019-02-18T11:54:08.067Z,73.25
2019-02-18T11:59:12.321Z,72.18
2019-02-18T12:01:41.093Z,71.35
2019-02-18T12:04:09.548Z,70.03
2019-02-18T12:06:37.981Z,69.40
2019-02-18T12:09:46.360Z,68.84
2019-02-18T12:12:14.793Z,69.23
2019-02-18T12:14:43.245Z,68.00
2019-02-18T12:17:20.313Z,68.30
2019-02-18T12:19:41.857Z,68.10
2019-02-18T12:22:12.065Z,67.89
2019-02-18T12:24:40.803Z,66.89
2019-02-18T12:27:09.226Z,67.08
2019-02-18T12:29:37.679Z,66.80
2019-02-18T12:32:25.417Z,65.94
2019-02-18T12:34:53.844Z,65.80
2019-02-18T12:37:41.754Z,65.19
2019-02-18T12:40:50.123Z,65.04
2019-02-18T12:43:18.664Z,64.30
2019-02-18T12:45:47.105Z,64.05
2019-02-18T12:48:17.267Z,62.76
2019-02-18T12:51:05.503Z,63.06
2019-02-18T12:53:34.286Z,63.71
2019-02-18T12:56:03.073Z,62.48
2019-02-18T13:01:27.817Z,62.53
2019-02-18T13:04:15.901Z,62.59
2019-02-18T13:07:03.597Z,62.69
2019-02-18T13:09:32.112Z,62.97
2019-02-18T13:12:00.541Z,61.93
2019-02-18T13:14:29.005Z,59.62
2019-02-18T13:16:57.499Z,60.11
2019-02-18T13:19:25.933Z,58.45
2019-02-18T13:21:54.390Z,58.82
2019-02-18T13:24:24.542Z,57.95
2019-02-18T13:26:52.972Z,59.44
2019-02-18T13:29:40.747Z,60.21
2019-02-18T13:32:09.181Z,60.93
2019-02-18T13:34:37.731Z,60.75
2019-02-18T13:37:06.189Z,60.25
2019-02-18T13:39:54.027Z,58.27
2019-02-18T13:45:36.299Z,59.17
2019-02-18T13:48:04.873Z,57.68
2019-02-18T13:50:33.312Z,57.68
2019-02-18T13:53:01.867Z,56.76
2019-02-18T13:55:30.324Z,57.95
2019-02-18T13:57:58.849Z,58.72
2019-02-18T14:00:46.642Z,58.91
2019-02-18T14:03:22.147Z,59.12
2019-02-18T14:05:50.856Z,59.20
2019-02-18T14:08:19.309Z,59.79
2019-02-18T14:11:06.926Z,58.90
2019-02-18T14:13:35.397Z,59.02
2019-02-18T14:16:24.739Z,58.16
2019-02-18T14:24:42.798Z,51.92
2019-02-18T14:27:11.223Z,51.25
2019-02-18T14:29:39.652Z,51.66
2019-02-18T14:32:09.927Z,51.39
2019-02-18T14:34:38.359Z,51.00
2019-02-18T14:37:46.759Z,50.76
2019-02-18T14:40:55.097Z,48.98
2019-02-18T14:43:42.996Z,49.55
2019-02-18T14:46:30.599Z,48.35
2019-02-18T14:51:33.048Z,48.97
2019-02-18T14:54:21.108Z,49.76
2019-02-18T14:57:09.060Z,48.99
2019-02-18T15:02:53.274Z,49.11
2019-02-18T15:08:17.591Z,49.38
2019-02-18T15:10:46.112Z,48.94
2019-02-18T15:13:14.875Z,48.91
2019-02-18T15:15:45.052Z,48.73
2019-02-18T15:18:13.571Z,48.55
2019-02-18T15:20:42.000Z,49.52
2019-02-18T15:23:10.471Z,52.71
2019-02-18T15:25:38.993Z,56.40
2019-02-18T15:28:07.424Z,59.20
2019-02-18T15:30:35.884Z,59.99
2019-02-18T15:33:04.413Z,61.29
2019-02-18T15:38:20.433Z,61.58
2019-02-18T15:40:48.933Z,61.55
2019-02-18T15:43:38.559Z,62.05
2019-02-18T15:46:46.906Z,62.51
2019-02-18T15:49:34.668Z,62.64
2019-02-18T15:55:10.092Z,63.75
2019-02-18T15:57:38.554Z,64.06
2019-02-18T16:00:26.971Z,64.42
2019-02-18T16:02:55.412Z,64.93
2019-02-18T16:05:43.247Z,65.13
2019-02-18T16:08:11.675Z,65.47
2019-02-18T16:10:40.464Z,65.44
2019-02-18T16:13:10.683Z,65.59
2019-02-18T16:15:58.445Z,65.86
2019-02-18T16:18:26.902Z,66.47
2019-02-18T16:20:55.688Z,66.25
2019-02-18T16:23:24.120Z,66.47
2019-02-18T16:26:11.926Z,67.16
2019-02-18T16:28:40.467Z,67.34
2019-02-18T16:31:08.964Z,67.53
2019-02-18T16:33:37.431Z,67.93
2019-02-18T16:36:05.864Z,68.33
2019-02-18T16:38:34.316Z,68.70
2019-02-18T16:41:03.119Z,69.24
2019-02-18T16:43:32.212Z,69.15
2019-02-18T16:46:00.999Z,69.48
2019-02-18T16:48:29.862Z,69.80
2019-02-18T16:50:58.562Z,70.01
2019-02-18T16:53:27.061Z,70.36
2019-02-18T16:55:55.522Z,70.22
2019-02-18T16:58:24.226Z,70.92
2019-02-18T17:00:57.649Z,71.35
2019-02-18T17:03:23.196Z,71.52
2019-02-18T17:05:52.000Z,71.85
2019-02-18T17:08:20.430Z,72.07
2019-02-18T17:10:49.885Z,72.28
2019-02-18T17:13:19.208Z,72.54
2019-02-18T17:15:47.652Z,72.61
2019-02-18T17:18:16.201Z,72.62
2019-02-18T17:20:44.719Z,72.75
2019-02-18T17:23:13.512Z,72.93
2019-02-18T17:25:42.056Z,72.93
2019-02-18T17:28:10.507Z,73.31
2019-02-18T17:30:38.927Z,73.65
2019-02-18T17:33:07.540Z,74.37
2019-02-18T17:35:36.365Z,74.81
2019-02-18T17:38:05.227Z,74.90
2019-02-18T17:40:33.680Z,75.63
2019-02-18T17:43:02.266Z,75.71
2019-02-18T17:45:30.696Z,75.78
2019-02-18T17:47:59.155Z,76.28
2019-02-18T17:50:27.861Z,76.80
2019-02-18T17:52:58.118Z,76.68
2019-02-18T17:55:26.774Z,77.37
2019-02-18T17:57:55.478Z,77.96
2019-02-18T18:00:26.285Z,77.73
2019-02-18T18:02:54.926Z,78.48
2019-02-18T18:05:24.378Z,79.24
2019-02-18T18:07:53.143Z,79.46
2019-02-18T18:10:21.922Z,80.04
2019-02-18T18:12:50.407Z,81.07
2019-02-18T18:15:20.265Z,81.05
2019-02-18T18:17:49.142Z,81.04
2019-02-18T18:20:17.649Z,81.34
2019-02-18T18:22:46.087Z,81.14
2019-02-18T18:25:15.761Z,81.62
2019-02-18T18:27:44.180Z,80.59
2019-02-18T18:30:20.111Z,82.11
2019-02-18T18:32:48.685Z,81.79
2019-02-18T18:35:17.281Z,81.83
2019-02-18T18:37:45.713Z,82.50
2019-02-18T18:40:19.079Z,82.84
2019-02-18T18:42:47.577Z,83.14
2019-02-18T18:45:17.815Z,83.01
2019-02-18T18:47:46.342Z,83.23
2019-02-18T18:50:20.541Z,83.96
2019-02-18T18:52:48.973Z,84.19
2019-02-18T18:55:17.564Z,85.32
2019-02-18T18:57:46.068Z,85.16
2019-02-18T19:00:24.238Z,84.17
2019-02-18T19:02:52.838Z,83.82
2019-02-18T19:05:21.649Z,84.11
2019-02-18T19:07:50.109Z,84.43
2019-02-18T19:10:18.771Z,84.38
2019-02-18T19:12:47.579Z,85.21
2019-02-18T19:15:17.286Z,84.23
2019-02-18T19:17:45.831Z,84.66
2019-02-18T19:20:14.642Z,84.73
2019-02-18T19:22:43.199Z,85.14
2019-02-18T19:25:12.940Z,85.49
2019-02-18T19:27:41.528Z,85.14
2019-02-18T19:30:25.105Z,85.19
2019-02-18T19:32:53.865Z,84.30
2019-02-18T19:35:22.382Z,84.66
2019-02-18T19:37:51.244Z,85.18
2019-02-18T19:40:19.747Z,84.41
2019-02-18T19:42:48.242Z,84.81
2019-02-18T19:45:21.605Z,84.47
2019-02-18T19:47:50.200Z,84.60
2019-02-18T19:50:19.069Z,84.40
2019-02-18T19:52:47.524Z,84.29
2019-02-18T19:55:16.014Z,83.96
2019-02-18T19:57:44.711Z,84.30
2019-02-18T20:00:20.327Z,83.61
2019-02-18T20:02:49.256Z,83.86
2019-02-18T20:05:17.817Z,84.23
2019-02-18T20:07:46.291Z,83.39
2019-02-18T20:10:15.070Z,83.13
2019-02-18T20:12:43.487Z,83.39
2019-02-18T20:15:13.785Z,83.92
2019-02-18T20:17:42.279Z,84.20
2019-02-18T20:20:15.772Z,84.06
2019-02-18T20:22:44.683Z,83.17
2019-02-18T20:25:13.350Z,82.78
2019-02-18T20:27:42.645Z,83.01
2019-02-18T20:30:16.342Z,83.02
2019-02-18T20:32:44.830Z,83.52
2019-02-18T20:35:13.994Z,83.62
2019-02-18T20:37:42.443Z,83.95
2019-02-18T20:40:12.096Z,84.37
2019-02-18T20:42:40.965Z,84.54
2019-02-18T20:45:13.359Z,84.28
2019-02-18T20:47:41.798Z,85.02
2019-02-18T20:50:14.927Z,84.58
2019-02-18T20:52:43.456Z,85.05
2019-02-18T20:55:15.905Z,83.93
2019-02-18T20:57:44.420Z,85.09
2019-02-18T21:00:16.794Z,84.61
2019-02-18T21:02:45.671Z,84.78
2019-02-18T21:05:14.159Z,85.48
2019-02-18T21:07:42.706Z,85.21
2019-02-18T21:10:24.272Z,85.44
2019-02-18T21:12:53.121Z,84.61
2019-02-18T21:15:21.628Z,85.43
2019-02-18T21:17:50.049Z,85.31
2019-02-18T21:20:18.594Z,85.66
2019-02-18T21:22:47.394Z,84.47
2019-02-18T21:25:15.832Z,84.38
2019-02-18T21:27:44.618Z,85.01
2019-02-18T21:30:14.975Z,85.43
2019-02-18T21:32:43.396Z,85.72
2019-02-18T21:35:12.488Z,85.70
2019-02-18T21:37:41.347Z,85.28
2019-02-18T21:40:14.201Z,85.70
2019-02-18T21:42:43.075Z,86.13
2019-02-18T21:45:15.427Z,86.26
2019-02-18T21:47:43.842Z,86.60
2019-02-18T21:50:12.733Z,86.95
2019-02-18T21:52:41.429Z,86.86
2019-02-18T21:55:11.394Z,87.11
2019-02-18T21:57:40.171Z,86.72
2019-02-18T22:00:16.484Z,86.36
2019-02-18T22:02:45.102Z,87.46
2019-02-18T22:05:14.260Z,87.69
2019-02-18T22:07:42.679Z,87.53
2019-02-18T22:10:11.266Z,87.14
2019-02-18T22:12:39.683Z,87.77
2019-02-18T22:15:10.857Z,88.01
2019-02-18T22:17:39.371Z,87.96
2019-02-18T22:20:10.801Z,88.95
2019-02-18T22:22:39.224Z,89.29
2019-02-18T22:25:10.970Z,88.68
2019-02-18T22:27:40.015Z,89.04
2019-02-18T22:30:11.517Z,89.25
2019-02-18T22:32:40.032Z,89.11
2019-02-18T22:35:09.958Z,88.57
2019-02-18T22:37:38.530Z,88.63
2019-02-18T22:40:09.509Z,88.57
2019-02-18T22:42:38.030Z,89.12
2019-02-18T22:45:08.414Z,89.69
2019-02-18T22:47:36.935Z,89.78
2019-02-18T22:50:06.396Z,89.81
2019-02-18T22:52:34.995Z,89.50
2019-02-18T22:55:04.468Z,89.37
2019-02-18T22:57:33.856Z,89.21
2019-02-18T23:00:02.286Z,89.81
2019-02-18T23:02:30.882Z,88.08
2019-02-18T23:04:59.302Z,89.57
2019-02-18T23:07:27.723Z,89.43
2019-02-18T23:09:56.197Z,89.66
2019-02-18T23:12:25.559Z,88.30
2019-02-18T23:14:54.184Z,90.06
2019-02-18T23:17:22.638Z,90.41
2019-02-18T23:19:51.326Z,90.23
2019-02-18T23:22:19.815Z,90.13
2019-02-18T23:24:48.743Z,90.57
2019-02-18T23:27:17.236Z,90.30
2019-02-18T23:29:45.654Z,90.24
2019-02-18T23:32:14.115Z,90.02
2019-02-18T23:34:42.608Z,90.64
2019-02-18T23:37:11.419Z,90.26
2019-02-18T23:39:39.907Z,90.67
2019-02-18T23:42:08.587Z,90.89
2019-02-18T23:44:37.369Z,90.02
2019-02-18T23:47:05.822Z,90.56
2019-02-18T23:49:34.334Z,91.51
2019-02-18T23:52:02.852Z,91.53
2019-02-18T23:54:31.295Z,91.08
2019-02-18T23:56:59.742Z,91.37
2019-02-18T23:59:28.163Z,91.37
